Time;durP1;ratioP1;P1;durP2;ratioP2;P2;SDS_P1;SDS_P2;PMS_P1;PMS_P2;Temp;Humidity;BMP_temperature;BMP_pressure;BME280_temperature;BME280_humidity;BME280_pressure;Samples;Min_cycle;Max_cycle;Signal;HPM_P1;HPM_P2
2021/08/08 00:00:08;;;;;;;235.40;212.43;;;16.20;99.90;;;;;;4134889;28;20034;-78
2021/08/08 00:02:08;;;;;;;244.35;218.40;;;15.70;99.90;;;;;;4135241;28;20027;-77
2021/08/08 00:04:09;;;;;;;294.33;263.98;;;16.30;99.90;;;;;;4140595;28;20211;-77
2021/08/08 00:06:09;;;;;;;29.25;26.92;;;15.30;99.90;;;;;;4137181;28;20042;-77
2021/08/08 00:08:12;;;;;;;15.93;14.38;;;15.60;99.90;;;;;;4133960;28;20109;-78
2021/08/08 00:10:13;;;;;;;36.55;33.58;;;15.70;99.90;;;;;;4135223;28;20034;-75
2021/08/08 00:12:14;;;;;;;16.98;15.43;;;15.50;99.90;;;;;;4141953;28;20041;-78
2021/08/08 00:14:14;;;;;;;25.55;23.33;;;15.80;99.90;;;;;;4137072;28;20033;-75
2021/08/08 00:16:15;;;;;;;17.98;15.50;;;15.70;99.90;;;;;;4140328;28;20042;-78
2021/08/08 00:18:16;;;;;;;22.38;20.48;;;15.70;99.90;;;;;;4135321;28;20504;-76
2021/08/08 00:20:17;;;;;;;15.90;14.40;;;15.80;99.90;;;;;;4139594;28;20026;-76
2021/08/08 00:22:17;;;;;;;13.07;10.38;;;15.80;99.90;;;;;;4145020;28;20038;-76
2021/08/08 00:24:18;;;;;;;18.02;15.15;;;15.70;99.90;;;;;;4135052;28;20338;-76
2021/08/08 00:26:19;;;;;;;12.90;10.25;;;15.60;99.90;;;;;;4140445;28;20073;-75
2021/08/08 00:28:20;;;;;;;12.85;9.98;;;15.40;99.90;;;;;;4138341;28;20041;-76
2021/08/08 00:30:20;;;;;;;17.40;14.88;;;15.60;99.90;;;;;;4142160;28;20505;-76
2021/08/08 00:32:23;;;;;;;9.75;8.55;;;15.70;99.90;;;;;;4137707;28;20038;-77
2021/08/08 00:34:23;;;;;;;12.63;9.63;;;15.70;99.90;;;;;;4144970;28;20382;-78
2021/08/08 00:36:24;;;;;;;91.50;84.13;;;15.50;99.90;;;;;;4139027;28;20042;-77
2021/08/08 00:38:25;;;;;;;15.18;13.57;;;15.70;99.90;;;;;;4135859;28;20460;-78
2021/08/08 00:40:25;;;;;;;23.30;20.98;;;15.90;99.90;;;;;;4141673;28;20050;-76
2021/08/08 00:42:26;;;;;;;41.65;37.95;;;15.30;99.90;;;;;;4138551;28;20402;-78
2021/08/08 00:44:27;;;;;;;22.65;20.40;;;15.60;99.90;;;;;;4154697;28;20049;-78
2021/08/08 00:46:27;;;;;;;101.78;92.28;;;15.50;99.90;;;;;;4132537;28;20047;-78
2021/08/08 00:48:28;;;;;;;29.05;26.27;;;16.40;99.90;;;;;;4135196;28;20044;-77
2021/08/08 00:50:29;;;;;;;29.30;26.55;;;16.10;99.90;;;;;;4137965;28;20033;-79
2021/08/08 00:52:29;;;;;;;26.90;24.58;;;15.70;99.90;;;;;;4141379;28;20522;-78
2021/08/08 00:54:30;;;;;;;108.63;100.32;;;15.80;99.90;;;;;;4132920;28;20032;-78
2021/08/08 00:56:31;;;;;;;35.95;33.20;;;15.80;99.90;;;;;;4133650;28;20497;-78
2021/08/08 00:58:32;;;;;;;84.00;77.70;;;15.80;99.90;;;;;;4138652;28;20026;-77
2021/08/08 01:00:33;;;;;;;21.15;19.25;;;15.80;99.90;;;;;;4141466;28;20505;-78
2021/08/08 01:02:38;;;;;;;72.60;67.45;;;15.80;99.90;;;;;;4136402;28;20129;-78
2021/08/08 01:04:47;;;;;;;19.10;17.30;;;14.60;99.90;;;;;;4134172;28;20429;-77
2021/08/08 01:06:53;;;;;;;15.98;14.38;;;15.30;99.90;;;;;;4134012;28;20577;-77
2021/08/08 01:09:02;;;;;;;22.23;20.17;;;15.70;99.90;;;;;;4149462;28;20461;-77
2021/08/08 01:11:03;;;;;;;12.02;10.82;;;15.30;99.90;;;;;;4130621;28;20066;-78
2021/08/08 01:13:06;;;;;;;44.45;40.72;;;16.10;99.90;;;;;;4137412;28;20045;-77
2021/08/08 01:15:08;;;;;;;36.45;33.38;;;15.40;99.90;;;;;;4131187;28;20367;-77
2021/08/08 01:17:10;;;;;;;17.13;13.88;;;15.80;99.90;;;;;;4132272;28;20057;-76
2021/08/08 01:19:11;;;;;;;15.02;12.18;;;15.80;99.90;;;;;;4132793;28;20034;-77
2021/08/08 01:21:12;;;;;;;17.15;9.00;;;16.50;99.90;;;;;;4135095;28;20030;-76
2021/08/08 01:23:17;;;;;;;17.50;13.10;;;16.20;99.90;;;;;;4130881;28;20143;-75
2021/08/08 01:25:19;;;;;;;19.73;11.70;;;14.80;99.90;;;;;;4131412;28;20042;-77
2021/08/08 01:27:20;;;;;;;15.35;13.65;;;15.50;99.90;;;;;;4131230;28;20351;-78
2021/08/08 01:29:21;;;;;;;12.90;9.73;;;16.30;99.90;;;;;;4134088;28;20065;-76
2021/08/08 01:31:22;;;;;;;29.85;27.17;;;15.30;99.90;;;;;;4131192;28;20098;-77
2021/08/08 01:33:23;;;;;;;55.05;50.78;;;15.60;99.90;;;;;;4132884;28;21405;-77
2021/08/08 01:35:23;;;;;;;203.43;186.52;;;15.80;99.90;;;;;;4132089;28;20044;-75
2021/08/08 01:37:24;;;;;;;120.65;111.25;;;16.50;99.90;;;;;;4136048;28;20049;-76
2021/08/08 01:39:29;;;;;;;50.45;46.22;;;15.50;99.90;;;;;;4130728;28;20100;-79
2021/08/08 01:41:36;;;;;;;21.67;19.50;;;14.80;99.90;;;;;;4130019;28;20116;-75
2021/08/08 01:43:41;;;;;;;32.05;29.05;;;15.70;99.90;;;;;;4132174;28;20135;-77
2021/08/08 01:45:44;;;;;;;32.53;29.20;;;15.50;99.90;;;;;;4139946;28;20050;-78
2021/08/08 01:47:50;;;;;;;22.00;18.65;;;15.60;99.90;;;;;;4134233;28;20046;-79
2021/08/08 01:49:52;;;;;;;26.27;21.33;;;16.20;99.90;;;;;;4130909;28;20040;-77
2021/08/08 01:51:54;;;;;;;18.08;12.77;;;15.60;99.90;;;;;;4135123;28;20591;-79
2021/08/08 01:53:55;;;;;;;25.63;18.30;;;15.70;99.90;;;;;;4140623;28;20398;-76
2021/08/08 01:55:56;;;;;;;28.00;18.80;;;14.40;99.90;;;;;;4134041;28;20368;-78
2021/08/08 01:57:58;;;;;;;41.60;31.45;;;15.60;99.90;;;;;;4132576;28;20052;-78
2021/08/08 01:59:58;;;;;;;30.55;21.05;;;15.60;99.90;;;;;;4136740;28;20034;-79
2021/08/08 02:02:28;;;;;;;48.45;32.97;;;15.50;99.90;;;;;;4130840;28;20093;-75
2021/08/08 02:04:29;;;;;;;37.33;23.88;;;15.10;99.90;;;;;;4134099;28;20034;-76
2021/08/08 02:06:30;;;;;;;44.47;28.95;;;15.30;99.90;;;;;;4134661;28;20446;-77
2021/08/08 02:08:31;;;;;;;50.60;28.38;;;15.30;99.90;;;;;;4133920;28;20041;-76
2021/08/08 02:10:31;;;;;;;39.75;27.77;;;15.40;99.90;;;;;;4136054;28;20048;-78
2021/08/08 02:12:32;;;;;;;151.57;136.15;;;15.40;99.90;;;;;;4131915;28;20022;-78
2021/08/08 02:14:34;;;;;;;48.78;41.03;;;15.30;99.90;;;;;;4131997;28;20151;-78
2021/08/08 02:16:34;;;;;;;58.72;46.25;;;15.60;99.90;;;;;;4135621;28;20042;-76
2021/08/08 02:18:35;;;;;;;41.22;28.80;;;15.30;99.90;;;;;;4138136;28;20061;-76
2021/08/08 02:20:36;;;;;;;28.70;22.60;;;15.50;99.90;;;;;;4131012;28;20034;-79
2021/08/08 02:22:38;;;;;;;56.67;51.10;;;15.40;99.90;;;;;;4132717;28;20056;-78
2021/08/08 02:24:38;;;;;;;45.08;27.13;;;15.60;99.90;;;;;;4134753;28;20029;-78
2021/08/08 02:26:39;;;;;;;59.05;48.28;;;15.20;99.90;;;;;;4133994;28;20113;-78
2021/08/08 02:28:40;;;;;;;54.10;41.85;;;16.00;99.90;;;;;;4130413;28;20147;-77
2021/08/08 02:30:40;;;;;;;59.70;46.55;;;15.40;99.90;;;;;;4139556;28;20177;-77
2021/08/08 02:32:42;;;;;;;78.05;62.40;;;15.10;99.90;;;;;;4133481;28;20560;-77
2021/08/08 02:34:42;;;;;;;84.22;61.67;;;15.10;99.90;;;;;;4133549;28;20030;-76
2021/08/08 02:36:43;;;;;;;66.70;50.50;;;15.40;99.90;;;;;;4134454;28;20049;-77
2021/08/08 02:38:44;;;;;;;69.55;48.80;;;15.70;99.90;;;;;;4131113;28;20053;-77
2021/08/08 02:40:44;;;;;;;49.63;28.63;;;15.40;99.90;;;;;;4130746;28;20034;-77
2021/08/08 02:42:45;;;;;;;87.57;61.08;;;15.20;99.90;;;;;;4138146;28;20042;-79
2021/08/08 02:44:46;;;;;;;85.97;76.60;;;15.20;99.90;;;;;;4135721;28;20411;-77
2021/08/08 02:46:46;;;;;;;39.78;24.23;;;15.20;99.90;;;;;;4135046;28;20041;-78
2021/08/08 02:48:47;;;;;;;38.38;20.90;;;15.20;99.90;;;;;;4149476;28;20535;-78
2021/08/08 02:50:48;;;;;;;56.95;42.22;;;15.10;99.90;;;;;;4131215;28;20101;-77
2021/08/08 02:52:48;;;;;;;43.95;28.17;;;15.50;99.90;;;;;;4131391;28;20038;-77
2021/08/08 02:54:49;;;;;;;39.95;25.63;;;15.40;99.90;;;;;;4130286;28;20038;-77
2021/08/08 02:56:49;;;;;;;54.22;37.20;;;15.30;99.90;;;;;;4131049;28;20047;-79
2021/08/08 02:58:50;;;;;;;61.40;35.38;;;15.50;99.90;;;;;;4131612;28;20042;-78
2021/08/08 03:00:51;;;;;;;82.35;57.25;;;15.40;99.90;;;;;;4134461;28;20038;-78
2021/08/08 03:02:51;;;;;;;249.50;212.55;;;16.00;99.90;;;;;;4137573;28;20105;-78
2021/08/08 03:04:52;;;;;;;44.88;26.52;;;15.60;99.90;;;;;;4134080;28;20083;-77
2021/08/08 03:06:53;;;;;;;51.63;28.27;;;15.50;99.90;;;;;;4130348;28;20030;-78
2021/08/08 03:08:53;;;;;;;44.35;29.70;;;15.40;99.90;;;;;;4134274;28;20425;-78
2021/08/08 03:10:54;;;;;;;63.92;50.25;;;15.40;99.90;;;;;;4135219;28;20045;-78
2021/08/08 03:12:55;;;;;;;53.60;30.65;;;15.50;99.90;;;;;;4135479;28;20072;-78
2021/08/08 03:14:55;;;;;;;87.82;78.63;;;15.40;99.90;;;;;;4136299;28;20444;-78
2021/08/08 03:16:56;;;;;;;42.78;25.65;;;15.50;99.90;;;;;;4135875;28;20026;-77
2021/08/08 03:18:56;;;;;;;106.15;78.75;;;15.50;99.90;;;;;;4132540;28;20126;-78
2021/08/08 03:20:57;;;;;;;63.05;47.75;;;15.50;99.90;;;;;;4134025;28;20034;-78
2021/08/08 03:22:58;;;;;;;80.53;50.30;;;15.40;99.90;;;;;;4131865;28;20031;-73
2021/08/08 03:24:58;;;;;;;27.77;17.15;;;15.30;99.90;;;;;;4132821;28;20033;-77
2021/08/08 03:26:59;;;;;;;34.63;17.63;;;15.50;99.90;;;;;;4132241;28;20431;-78
2021/08/08 03:29:00;;;;;;;44.42;23.75;;;15.50;99.90;;;;;;4130947;28;20535;-77
2021/08/08 03:31:01;;;;;;;52.55;26.38;;;15.50;99.90;;;;;;4130792;28;20050;-74
2021/08/08 03:33:02;;;;;;;29.88;15.68;;;15.50;99.90;;;;;;4132549;28;20057;-77
2021/08/08 03:35:04;;;;;;;27.15;14.40;;;14.80;99.90;;;;;;4133402;28;20023;-77
2021/08/08 03:37:05;;;;;;;58.33;44.88;;;15.70;99.90;;;;;;4148545;28;20103;-77
2021/08/08 03:39:05;;;;;;;36.30;18.38;;;14.70;99.90;;;;;;4130491;28;20035;-77
2021/08/08 03:41:06;;;;;;;23.65;13.73;;;15.50;99.90;;;;;;4131411;28;20379;-77
2021/08/08 03:43:06;;;;;;;27.67;15.13;;;15.80;99.90;;;;;;4137946;28;20575;-75
2021/08/08 03:45:07;;;;;;;35.15;19.40;;;16.30;99.90;;;;;;4131004;28;20453;-76
2021/08/08 03:47:08;;;;;;;28.63;16.27;;;15.00;99.90;;;;;;4135303;28;20070;-77
2021/08/08 03:49:11;;;;;;;30.98;15.93;;;15.10;99.90;;;;;;4143846;28;20061;-77
2021/08/08 03:51:12;;;;;;;;;;;15.10;99.90;;;;;;4131892;28;20520;-77
2021/08/08 03:53:13;;;;;;;30.83;16.15;;;15.30;99.90;;;;;;4132821;28;19913;-76
2021/08/08 03:55:13;;;;;;;32.92;16.35;;;14.70;99.90;;;;;;4137360;28;20042;-78
2021/08/08 03:57:14;;;;;;;34.00;17.23;;;15.20;99.90;;;;;;4138224;28;20500;-77
2021/08/08 03:59:14;;;;;;;31.42;16.30;;;15.40;99.90;;;;;;4134446;28;20045;-77
2021/08/08 04:01:15;;;;;;;34.85;17.85;;;15.20;99.90;;;;;;4147874;28;20599;-77
2021/08/08 04:03:16;;;;;;;31.58;16.00;;;15.30;99.90;;;;;;4135714;28;20477;-76
2021/08/08 04:05:17;;;;;;;33.35;17.15;;;15.00;99.90;;;;;;4136229;28;20022;-77
2021/08/08 04:07:17;;;;;;;37.25;18.15;;;15.20;99.90;;;;;;4137389;28;20030;-77
2021/08/08 04:09:18;;;;;;;39.25;18.65;;;15.20;99.90;;;;;;4141936;28;20426;-76
2021/08/08 04:11:19;;;;;;;31.08;16.45;;;15.10;99.90;;;;;;4152264;28;20037;-78
2021/08/08 04:13:19;;;;;;;39.63;17.23;;;15.40;99.90;;;;;;4132819;28;20386;-77
2021/08/08 04:15:20;;;;;;;36.28;17.27;;;16.00;99.90;;;;;;4132344;28;20053;-76
2021/08/08 04:17:21;;;;;;;41.78;18.48;;;14.20;99.90;;;;;;4134863;28;20070;-77
2021/08/08 04:19:21;;;;;;;41.20;21.85;;;14.80;99.90;;;;;;4139342;28;20054;-79
2021/08/08 04:21:22;;;;;;;45.80;18.65;;;14.80;99.90;;;;;;4138343;28;20398;-77
2021/08/08 04:23:22;;;;;;;34.50;17.95;;;14.80;99.90;;;;;;4133411;28;20097;-77
2021/08/08 04:25:23;;;;;;;46.92;21.00;;;14.50;99.90;;;;;;4131896;28;20038;-77
2021/08/08 04:27:24;;;;;;;35.75;20.40;;;14.70;99.90;;;;;;4136217;28;20031;-77
2021/08/08 04:29:24;;;;;;;35.60;18.70;;;14.70;99.90;;;;;;4136025;28;20042;-76
2021/08/08 04:31:25;;;;;;;35.92;19.75;;;14.70;99.90;;;;;;4137996;28;20034;-77
2021/08/08 04:33:26;;;;;;;37.97;19.73;;;14.70;99.90;;;;;;4136893;28;20418;-77
2021/08/08 04:35:28;;;;;;;40.47;19.35;;;14.80;99.90;;;;;;4134500;28;20034;-77
2021/08/08 04:37:29;;;;;;;39.38;19.58;;;14.90;99.90;;;;;;4135835;28;20045;-76
2021/08/08 04:39:30;;;;;;;45.63;18.70;;;14.70;99.90;;;;;;4145888;28;20153;-78
2021/08/08 04:41:31;;;;;;;53.28;18.25;;;14.80;99.90;;;;;;4133377;28;20540;-77
2021/08/08 04:43:31;;;;;;;35.50;16.35;;;14.80;99.90;;;;;;4132443;28;20026;-77
2021/08/08 04:45:32;;;;;;;38.42;17.88;;;14.80;99.90;;;;;;4131575;28;20100;-75
2021/08/08 04:47:33;;;;;;;32.67;14.63;;;14.90;99.90;;;;;;4145257;28;20034;-74
2021/08/08 04:49:33;;;;;;;30.08;13.70;;;14.70;99.90;;;;;;4138623;28;20448;-78
2021/08/08 04:51:34;;;;;;;30.83;13.98;;;14.70;99.90;;;;;;4145674;28;20026;-78
2021/08/08 04:53:34;;;;;;;28.85;12.60;;;14.90;99.90;;;;;;4134407;28;20089;-75
2021/08/08 04:55:35;;;;;;;30.70;14.18;;;14.90;99.90;;;;;;4135006;28;20106;-78
2021/08/08 04:57:35;;;;;;;31.38;15.05;;;14.40;99.90;;;;;;4134689;28;20034;-78
2021/08/08 04:59:36;;;;;;;38.17;15.90;;;14.80;99.90;;;;;;4141204;28;20112;-75
2021/08/08 05:01:39;;;;;;;34.13;13.02;;;14.90;99.90;;;;;;4138773;28;20423;-77
2021/08/08 05:03:39;;;;;;;29.27;12.98;;;14.80;99.90;;;;;;4134298;28;20514;-75
2021/08/08 05:05:40;;;;;;;26.20;12.15;;;15.00;99.90;;;;;;4136519;28;20037;-78
2021/08/08 05:07:41;;;;;;;31.30;12.88;;;14.90;99.90;;;;;;4142036;28;20038;-77
2021/08/08 05:09:42;;;;;;;36.60;15.82;;;14.80;99.90;;;;;;4141235;28;20037;-78
2021/08/08 05:11:43;;;;;;;32.30;14.10;;;15.00;99.90;;;;;;4141425;28;20045;-77
2021/08/08 05:13:44;;;;;;;36.17;13.93;;;15.40;99.90;;;;;;4133376;28;20482;-77
2021/08/08 05:15:45;;;;;;;33.25;12.80;;;15.50;99.90;;;;;;4134805;28;20053;-78
2021/08/08 05:17:45;;;;;;;26.98;11.88;;;14.90;99.90;;;;;;4133352;28;20031;-78
2021/08/08 05:19:46;;;;;;;35.45;14.02;;;15.20;99.90;;;;;;4138782;28;20038;-77
2021/08/08 05:21:47;;;;;;;28.10;13.23;;;14.80;99.90;;;;;;4133022;28;20034;-77
2021/08/08 05:23:47;;;;;;;38.22;13.90;;;15.10;99.90;;;;;;4140097;28;20504;-77
2021/08/08 05:25:48;;;;;;;26.88;11.30;;;15.20;99.90;;;;;;4135177;28;20058;-77
2021/08/08 05:27:48;;;;;;;31.23;11.13;;;15.10;99.90;;;;;;4137162;28;20470;-77
2021/08/08 05:29:49;;;;;;;31.60;12.10;;;15.20;99.90;;;;;;4133628;28;20419;-77
2021/08/08 05:31:50;;;;;;;31.02;11.88;;;15.00;99.90;;;;;;4134771;28;20073;-77
2021/08/08 05:33:51;;;;;;;25.13;11.55;;;15.30;99.90;;;;;;4135579;28;20058;-75
2021/08/08 05:35:52;;;;;;;33.80;12.70;;;15.40;99.90;;;;;;4144541;28;20042;-77
2021/08/08 05:37:53;;;;;;;30.52;10.63;;;15.20;99.90;;;;;;4132813;28;20054;-75
2021/08/08 05:39:53;;;;;;;25.25;12.82;;;15.20;99.90;;;;;;4139174;28;20470;-74
2021/08/08 05:41:54;;;;;;;24.13;11.38;;;15.30;99.90;;;;;;4132048;28;20027;-75
2021/08/08 05:43:55;;;;;;;41.42;11.75;;;15.10;99.90;;;;;;4140765;28;20049;-77
2021/08/08 05:45:55;;;;;;;30.40;13.02;;;15.10;99.90;;;;;;4130513;28;20030;-76
2021/08/08 05:47:57;;;;;;;31.48;13.05;;;15.00;99.90;;;;;;4130856;28;20088;-76
2021/08/08 05:49:58;;;;;;;26.83;12.10;;;14.80;99.90;;;;;;4130189;28;20042;-76
2021/08/08 05:52:00;;;;;;;32.53;12.55;;;14.40;99.90;;;;;;4134902;28;20042;-75
2021/08/08 05:54:00;;;;;;;30.25;12.55;;;14.90;99.90;;;;;;4139122;28;20488;-78
2021/08/08 05:56:01;;;;;;;38.08;11.40;;;14.90;99.90;;;;;;4135965;28;20112;-75
2021/08/08 05:58:02;;;;;;;30.83;13.88;;;15.10;99.90;;;;;;4132269;28;20065;-76
2021/08/08 06:00:03;;;;;;;30.83;13.02;;;15.10;99.90;;;;;;4147223;28;20081;-76
2021/08/08 06:02:04;;;;;;;35.35;12.57;;;14.90;99.90;;;;;;4140793;28;20069;-77
2021/08/08 06:04:04;;;;;;;31.08;13.18;;;14.90;99.90;;;;;;4143689;28;20065;-77
2021/08/08 06:06:09;;;;;;;23.27;11.40;;;15.60;99.90;;;;;;4134762;28;20033;-78
2021/08/08 06:08:10;;;;;;;25.15;11.00;;;14.70;99.90;;;;;;4134715;28;20030;-78
2021/08/08 06:10:11;;;;;;;33.97;10.55;;;15.10;99.90;;;;;;4131300;28;20096;-77
2021/08/08 06:12:11;;;;;;;20.90;8.63;;;14.50;99.90;;;;;;4140324;28;20176;-77
2021/08/08 06:14:12;;;;;;;33.30;9.95;;;15.20;99.90;;;;;;4131091;28;20046;-77
2021/08/08 06:16:13;;;;;;;23.27;9.70;;;15.30;99.90;;;;;;4141517;28;20096;-77
2021/08/08 06:18:16;;;;;;;26.98;10.38;;;15.60;99.90;;;;;;4131005;28;20062;-77
2021/08/08 06:20:17;;;;;;;21.02;9.77;;;15.00;99.90;;;;;;4132678;28;20525;-78
2021/08/08 06:22:17;;;;;;;31.95;9.75;;;15.50;99.90;;;;;;4133308;28;20034;-78
2021/08/08 06:24:18;;;;;;;23.88;9.63;;;15.60;99.90;;;;;;4133568;28;20367;-77
2021/08/08 06:26:18;;;;;;;25.05;10.13;;;15.50;99.90;;;;;;4137769;28;20032;-78
2021/08/08 06:28:19;;;;;;;23.85;10.10;;;15.70;99.90;;;;;;4137463;28;20394;-76
2021/08/08 06:30:20;;;;;;;23.75;9.07;;;15.80;99.90;;;;;;4137618;28;20038;-76
2021/08/08 06:32:20;;;;;;;18.98;8.40;;;15.30;99.90;;;;;;4136588;28;20290;-76
2021/08/08 06:34:21;;;;;;;32.42;9.98;;;15.80;99.90;;;;;;4136769;28;20052;-76
2021/08/08 06:36:22;;;;;;;17.20;8.02;;;15.90;99.90;;;;;;4130538;28;20069;-76
2021/08/08 06:38:22;;;;;;;30.60;10.50;;;15.70;99.90;;;;;;4133923;28;20449;-75
2021/08/08 06:40:23;;;;;;;29.40;10.25;;;15.90;99.90;;;;;;4148158;28;20125;-76
2021/08/08 06:42:24;;;;;;;26.40;7.97;;;15.90;99.90;;;;;;4149344;28;20034;-76
2021/08/08 06:44:26;;;;;;;23.27;9.43;;;15.90;99.90;;;;;;4132852;28;20386;-76
2021/08/08 06:46:26;;;;;;;17.30;9.48;;;15.80;99.90;;;;;;4138903;28;20033;-76
2021/08/08 06:48:27;;;;;;;27.60;8.80;;;15.60;99.90;;;;;;4131447;28;20379;-76
2021/08/08 06:50:29;;;;;;;26.92;9.70;;;15.90;99.90;;;;;;4137047;28;20096;-78
2021/08/08 06:52:29;;;;;;;28.30;8.73;;;15.90;99.90;;;;;;4140236;28;20038;-77
2021/08/08 06:54:30;;;;;;;24.98;9.25;;;16.10;99.90;;;;;;4138215;28;20049;-76
2021/08/08 06:56:33;;;;;;;22.92;7.63;;;16.20;99.90;;;;;;4134271;28;20157;-77
2021/08/08 06:58:34;;;;;;;16.80;7.68;;;16.30;99.90;;;;;;4133879;28;20035;-76
2021/08/08 07:00:34;;;;;;;21.88;6.63;;;16.00;99.90;;;;;;4130277;28;20039;-76
2021/08/08 07:02:35;;;;;;;19.92;7.95;;;16.30;99.90;;;;;;4132137;28;20045;-77
2021/08/08 07:04:35;;;;;;;20.52;8.68;;;16.60;99.90;;;;;;4134707;28;20043;-75
2021/08/08 07:06:36;;;;;;;21.90;7.25;;;16.60;99.90;;;;;;4134925;28;20034;-76
2021/08/08 07:08:37;;;;;;;21.65;8.07;;;16.80;99.90;;;;;;4131058;28;20113;-76
2021/08/08 07:10:38;;;;;;;14.05;7.65;;;16.70;99.90;;;;;;4134846;28;20065;-75
2021/08/08 07:12:38;;;;;;;22.00;8.45;;;16.80;99.90;;;;;;4147600;28;20350;-76
2021/08/08 07:14:39;;;;;;;23.30;6.18;;;17.00;99.90;;;;;;4133761;28;20057;-76
2021/08/08 07:16:40;;;;;;;23.52;7.35;;;17.00;99.90;;;;;;4135756;28;20030;-77
2021/08/08 07:18:43;;;;;;;12.75;6.20;;;17.30;99.90;;;;;;4133879;28;20038;-77
2021/08/08 07:20:44;;;;;;;;;;;16.40;99.90;;;;;;4133874;28;20052;-77
2021/08/08 07:22:44;;;;;;;14.15;6.43;;;17.00;99.90;;;;;;4131290;28;19917;-76
2021/08/08 07:24:45;;;;;;;14.15;5.68;;;17.20;99.90;;;;;;4134854;28;20540;-77
2021/08/08 07:26:46;;;;;;;22.95;6.00;;;17.20;99.90;;;;;;4132285;28;20475;-76
2021/08/08 07:28:46;;;;;;;20.17;7.55;;;17.30;99.90;;;;;;4140799;28;20377;-76
2021/08/08 07:30:47;;;;;;;22.00;7.40;;;17.40;99.90;;;;;;4137997;28;20048;-73
2021/08/08 07:32:48;;;;;;;19.92;6.18;;;17.40;99.90;;;;;;4136687;28;20378;-76
2021/08/08 07:34:49;;;;;;;16.38;6.20;;;17.30;99.90;;;;;;4137746;28;20049;-76
2021/08/08 07:36:50;;;;;;;21.48;8.23;;;17.00;99.90;;;;;;4135659;28;20145;-78
2021/08/08 07:38:51;;;;;;;16.15;5.40;;;17.10;99.90;;;;;;4133931;28;20522;-77
2021/08/08 07:40:51;;;;;;;22.58;8.18;;;17.10;99.90;;;;;;4138666;28;20051;-76
2021/08/08 07:42:52;;;;;;;23.48;7.80;;;16.90;99.90;;;;;;4134195;28;20049;-77
2021/08/08 07:44:53;;;;;;;17.50;6.72;;;16.70;99.90;;;;;;4137069;28;20042;-76
2021/08/08 07:46:54;;;;;;;18.42;6.68;;;16.90;99.90;;;;;;4135466;28;20058;-76
2021/08/08 07:48:55;;;;;;;19.60;7.38;;;17.10;99.90;;;;;;4145807;28;20080;-76
2021/08/08 07:50:56;;;;;;;18.30;6.72;;;16.20;99.90;;;;;;4149032;28;20037;-76
2021/08/08 07:52:56;;;;;;;25.55;8.27;;;17.10;99.90;;;;;;4137039;28;20122;-77
2021/08/08 07:54:57;;;;;;;25.40;6.30;;;17.10;99.90;;;;;;4135780;28;20369;-76
2021/08/08 07:56:58;;;;;;;19.55;7.07;;;17.40;99.90;;;;;;4140355;28;20034;-75
2021/08/08 07:58:58;;;;;;;20.63;7.90;;;17.70;99.90;;;;;;4137504;28;20121;-76
2021/08/08 08:00:59;;;;;;;13.82;6.07;;;17.90;99.90;;;;;;4143458;28;20065;-77
2021/08/08 08:03:00;;;;;;;21.30;7.10;;;17.50;99.90;;;;;;4136569;28;20034;-78
2021/08/08 08:05:00;;;;;;;15.63;5.97;;;17.80;99.90;;;;;;4140492;28;20571;-77
2021/08/08 08:07:01;;;;;;;17.60;8.48;;;18.00;99.90;;;;;;4140745;28;20041;-74
2021/08/08 08:09:01;;;;;;;18.65;6.68;;;18.20;99.90;;;;;;4136744;28;20487;-74
2021/08/08 08:11:02;;;;;;;14.30;5.57;;;18.30;99.90;;;;;;4134100;28;20030;-78
2021/08/08 08:13:03;;;;;;;21.35;6.93;;;18.10;99.90;;;;;;4132801;28;20095;-77
2021/08/08 08:15:05;;;;;;;18.27;5.93;;;18.50;99.90;;;;;;4136628;28;20371;-76
2021/08/08 08:17:06;;;;;;;20.65;6.68;;;18.70;99.90;;;;;;4133797;28;20026;-77
2021/08/08 08:19:06;;;;;;;15.15;6.13;;;18.90;99.90;;;;;;4135004;28;20488;-76
2021/08/08 08:21:07;;;;;;;11.68;5.82;;;18.90;99.90;;;;;;4136781;28;20080;-74
2021/08/08 08:23:08;;;;;;;17.38;6.45;;;18.90;99.90;;;;;;4134876;28;20023;-76
2021/08/08 08:25:09;;;;;;;17.42;6.00;;;18.50;99.90;;;;;;4137282;28;20057;-78
2021/08/08 08:27:10;;;;;;;23.00;6.90;;;18.40;99.90;;;;;;4135292;28;20023;-79
2021/08/08 08:29:11;;;;;;;17.13;5.43;;;18.30;99.90;;;;;;4132850;28;20580;-79
2021/08/08 08:31:11;;;;;;;10.63;5.60;;;18.20;99.90;;;;;;4133906;28;20049;-77
2021/08/08 08:33:12;;;;;;;16.73;6.70;;;18.00;99.90;;;;;;4138724;28;20026;-77
2021/08/08 08:35:13;;;;;;;13.45;5.22;;;17.90;99.90;;;;;;4144747;28;20532;-77
2021/08/08 08:37:13;;;;;;;17.35;6.47;;;18.00;99.90;;;;;;4133394;28;20386;-77
2021/08/08 08:39:14;;;;;;;19.08;6.50;;;18.00;99.90;;;;;;4133539;28;20018;-77
2021/08/08 08:41:16;;;;;;;17.92;6.05;;;17.90;99.90;;;;;;4149799;28;20461;-77
2021/08/08 08:43:21;;;;;;;22.83;6.78;;;17.90;99.90;;;;;;4133673;28;20070;-78
2021/08/08 08:45:22;;;;;;;20.10;6.40;;;18.00;99.90;;;;;;4132673;28;20038;-77
2021/08/08 08:47:24;;;;;;;22.10;6.18;;;18.10;99.90;;;;;;4141509;28;20466;-77
2021/08/08 08:49:27;;;;;;;11.20;5.32;;;18.20;99.90;;;;;;4136077;28;20470;-76
2021/08/08 08:51:34;;;;;;;20.05;7.35;;;18.00;99.90;;;;;;4133951;28;20033;-77
2021/08/08 08:53:35;;;;;;;18.55;6.32;;;17.90;99.90;;;;;;4137429;28;20026;-77
2021/08/08 08:55:37;;;;;;;19.08;5.82;;;18.00;99.90;;;;;;4132971;28;20033;-76
2021/08/08 08:57:40;;;;;;;18.33;6.38;;;18.30;99.90;;;;;;4136359;28;20034;-78
2021/08/08 08:59:41;;;;;;;14.70;5.40;;;18.40;99.90;;;;;;4134472;28;20137;-78
2021/08/08 09:01:42;;;;;;;12.52;5.47;;;18.70;99.90;;;;;;4137065;28;20031;-77
2021/08/08 09:03:46;;;;;;;12.52;5.50;;;19.10;99.90;;;;;;4140762;28;20042;-76
2021/08/08 09:05:47;;;;;;;17.65;6.13;;;19.10;99.90;;;;;;4141130;28;20045;-77
2021/08/08 09:07:48;;;;;;;15.60;5.70;;;19.00;99.90;;;;;;4133501;28;20050;-77
2021/08/08 09:09:49;;;;;;;23.48;7.18;;;18.90;99.90;;;;;;4143278;28;20417;-77
2021/08/08 09:11:51;;;;;;;15.85;5.22;;;19.00;99.90;;;;;;4140340;28;20038;-77
2021/08/08 09:13:56;;;;;;;13.30;4.72;;;19.10;99.90;;;;;;4138781;28;20068;-75
2021/08/08 09:15:57;;;;;;;17.42;5.18;;;19.10;99.90;;;;;;4136504;28;20038;-76
2021/08/08 09:18:13;;;;;;;14.40;5.00;;;19.10;99.90;;;;;;4135997;28;20058;-74
2021/08/08 09:20:13;;;;;;;12.60;4.55;;;18.90;99.90;;;;;;4136717;28;20041;-77
2021/08/08 09:22:21;;;;;;;16.90;4.93;;;18.80;99.90;;;;;;4135719;28;20030;-75
2021/08/08 09:24:29;;;;;;;13.63;5.28;;;18.70;99.90;;;;;;4138179;28;20088;-77
2021/08/08 09:26:34;;;;;;;20.25;6.60;;;18.70;99.90;;;;;;4133790;28;20069;-76
2021/08/08 09:28:36;;;;;;;13.32;5.70;;;18.60;99.90;;;;;;4136435;28;20041;-77
2021/08/08 09:30:40;;;;;;;12.15;4.75;;;18.80;99.90;;;;;;4141439;28;20041;-77
2021/08/08 09:32:41;;;;;;;15.63;5.70;;;19.20;99.90;;;;;;4143383;28;20038;-77
2021/08/08 09:34:43;;;;;;;15.02;5.15;;;19.70;99.90;;;;;;4145565;28;20053;-77
2021/08/08 09:36:44;;;;;;;17.10;5.57;;;19.90;99.90;;;;;;4138211;28;20041;-75
2021/08/08 09:38:46;;;;;;;14.52;4.80;;;19.40;99.90;;;;;;4142161;28;20165;-76
2021/08/08 09:41:00;;;;;;;13.88;4.93;;;19.30;99.90;;;;;;4133637;28;20042;-76
2021/08/08 09:43:01;;;;;;;13.75;6.35;;;19.50;99.90;;;;;;4135547;28;20486;-75
2021/08/08 09:45:06;;;;;;;15.52;5.53;;;19.70;99.90;;;;;;4133401;28;20093;-76
2021/08/08 09:47:07;;;;;;;15.15;5.70;;;20.00;99.90;;;;;;4149170;28;20049;-76
2021/08/08 09:49:14;;;;;;;11.90;4.75;;;20.10;99.90;;;;;;4142079;28;20481;-77
2021/08/08 09:51:14;;;;;;;19.05;4.45;;;19.90;99.90;;;;;;4135981;28;20026;-76
2021/08/08 09:53:17;;;;;;;15.15;5.65;;;19.90;99.90;;;;;;4143138;28;20151;-77
2021/08/08 09:55:27;;;;;;;13.57;4.95;;;19.60;99.90;;;;;;4140787;28;20116;-76
2021/08/08 09:57:40;;;;;;;14.23;4.90;;;19.60;99.90;;;;;;4141547;28;20041;-77
2021/08/08 09:59:48;;;;;;;7.68;4.20;;;19.30;99.90;;;;;;4135403;28;20061;-78
2021/08/08 10:01:49;;;;;;;13.07;5.30;;;19.40;99.90;;;;;;4132661;28;20108;-76
2021/08/08 10:03:49;;;;;;;12.90;5.15;;;19.20;99.90;;;;;;4139555;28;20038;-79
2021/08/08 10:05:54;;;;;;;16.00;6.50;;;19.30;99.90;;;;;;4138439;28;20513;-76
2021/08/08 10:07:55;;;;;;;15.80;4.20;;;19.60;99.90;;;;;;4136674;28;20022;-76
2021/08/08 10:09:58;;;;;;;8.55;4.82;;;20.20;99.90;;;;;;4138699;28;20030;-77
2021/08/08 10:12:14;;;;;;;10.98;5.00;;;20.70;99.90;;;;;;4133899;28;20038;-77
2021/08/08 10:14:15;;;;;;;11.25;3.80;;;21.10;99.90;;;;;;4149274;28;20029;-77
2021/08/08 10:16:17;;;;;;;13.15;4.88;;;21.30;99.90;;;;;;4135904;28;20030;-77
2021/08/08 10:18:24;;;;;;;14.48;5.97;;;21.40;99.90;;;;;;4133866;28;20460;-75